Terminal Aerodrome Forecast
Issued by NWS

Home | Current Version | Previous Version | Text Only | Print | Product List | Glossary On
Versions: 1 2 3 4 5 6 7 8 9 10 11 12 13 14 15 16 17 18 19 20 21 22 23 24 25 26 27 28 29 30 31 32 33 34 35 36
000
FTAK31 PAFA 211739
TAFAOT
TAF
PAOT 211739Z 2118/2218 14015KT P6SM SKC
     FM212000 13020G26KT 1 1/2SM -SN BLSN BR OVC015
     FM212300 13024G30KT 1/2SM SN BLSN FG OVC007
     FM220600 15020KT 1 1/2SM -SN BLSN OVC007=

USA.gov is the U.S. government's official web portal to all federal, state and local government web resources and services.